createdAt,value
2017-06-06T00:01:49.678Z,99.90
2017-06-06T00:04:18.135Z,99.90
2017-06-06T00:06:46.631Z,99.90
2017-06-06T00:09:15.091Z,99.90
2017-06-06T00:11:43.526Z,99.90
2017-06-06T00:14:12.747Z,99.90
2017-06-06T00:16:41.191Z,99.90
2017-06-06T00:19:09.708Z,99.90
2017-06-06T00:21:38.168Z,99.90
2017-06-06T00:24:07.375Z,99.90
2017-06-06T00:26:37.152Z,99.90
2017-06-06T00:29:05.683Z,99.90
2017-06-06T00:31:34.651Z,99.90
2017-06-06T00:34:03.189Z,99.90
2017-06-06T00:36:32.576Z,99.90
2017-06-06T00:39:01.028Z,99.90
2017-06-06T00:41:29.473Z,99.90
2017-06-06T00:43:57.956Z,99.90
2017-06-06T00:46:26.405Z,99.90
2017-06-06T00:48:54.841Z,99.90
2017-06-06T00:51:23.299Z,99.90
2017-06-06T00:53:51.751Z,99.90
2017-06-06T00:56:21.541Z,99.90
2017-06-06T00:58:50.743Z,99.90
2017-06-06T01:01:19.972Z,99.90
2017-06-06T01:03:49.000Z,99.90
2017-06-06T01:06:17.540Z,99.90
2017-06-06T01:08:46.031Z,99.90
2017-06-06T01:11:14.487Z,99.90
2017-06-06T01:13:43.695Z,99.90
2017-06-06T01:16:12.145Z,99.90
2017-06-06T01:18:40.615Z,99.90
2017-06-06T01:21:14.563Z,99.90
2017-06-06T01:23:42.832Z,99.90
2017-06-06T01:26:11.880Z,99.90
2017-06-06T01:28:41.949Z,99.90
2017-06-06T01:31:11.031Z,99.90
2017-06-06T01:33:44.952Z,99.90
2017-06-06T01:36:14.170Z,99.90
2017-06-06T01:38:42.695Z,99.90
2017-06-06T01:41:11.166Z,99.90
2017-06-06T01:43:39.613Z,99.90
2017-06-06T01:46:08.081Z,99.90
2017-06-06T01:48:36.620Z,99.90
2017-06-06T01:51:05.155Z,99.90
2017-06-06T01:53:34.363Z,99.90
2017-06-06T01:56:02.471Z,99.90
2017-06-06T01:58:30.907Z,99.90
2017-06-06T02:00:59.847Z,99.90
2017-06-06T02:03:28.327Z,99.90
2017-06-06T02:05:56.767Z,99.90
2017-06-06T02:08:25.991Z,99.90
2017-06-06T02:10:54.447Z,99.90
2017-06-06T02:13:23.668Z,99.90
2017-06-06T02:15:52.191Z,99.90
2017-06-06T02:18:20.687Z,99.90
2017-06-06T02:20:49.125Z,99.90
2017-06-06T02:23:17.677Z,99.90
2017-06-06T02:25:46.883Z,99.90
2017-06-06T02:28:16.092Z,99.90
2017-06-06T02:30:44.616Z,99.90
2017-06-06T02:33:13.153Z,99.90
2017-06-06T02:35:42.371Z,99.90
2017-06-06T02:38:10.836Z,99.90
2017-06-06T02:40:39.296Z,99.90
2017-06-06T02:43:07.738Z,99.90
2017-06-06T02:45:36.172Z,99.90
2017-06-06T02:48:05.387Z,99.90
2017-06-06T02:50:33.843Z,99.90
2017-06-06T02:53:02.156Z,99.90
2017-06-06T02:55:30.596Z,99.90
2017-06-06T02:57:59.025Z,99.90
2017-06-06T03:00:27.480Z,99.90
2017-06-06T03:02:55.972Z,99.90
2017-06-06T03:05:24.427Z,99.90
2017-06-06T03:07:52.855Z,99.90
2017-06-06T03:10:22.755Z,99.90
2017-06-06T03:12:51.203Z,99.90
2017-06-06T03:15:19.659Z,99.90
2017-06-06T03:17:48.096Z,99.90
2017-06-06T03:20:16.547Z,99.90
2017-06-06T03:22:44.984Z,99.90
2017-06-06T03:25:13.425Z,99.90
2017-06-06T03:27:42.639Z,99.90
2017-06-06T03:30:10.751Z,99.90
2017-06-06T03:33:17.244Z,99.90
2017-06-06T03:35:45.692Z,99.90
2017-06-06T03:38:14.152Z,99.90
2017-06-06T03:40:42.579Z,99.90
2017-06-06T03:43:11.027Z,99.90
2017-06-06T03:45:39.455Z,99.90
2017-06-06T03:48:07.890Z,99.90
2017-06-06T03:50:36.344Z,99.90
2017-06-06T03:53:05.543Z,99.90
2017-06-06T03:55:34.779Z,99.90
2017-06-06T03:58:03.236Z,99.90
2017-06-06T04:00:31.700Z,99.90
2017-06-06T04:03:00.927Z,99.90
2017-06-06T04:05:29.376Z,99.90
2017-06-06T04:07:58.583Z,99.90
2017-06-06T04:10:27.805Z,99.90
2017-06-06T04:12:56.263Z,99.90
2017-06-06T04:15:25.474Z,99.90
2017-06-06T04:17:54.724Z,99.90
2017-06-06T04:20:23.055Z,99.90
2017-06-06T04:22:52.264Z,99.90
2017-06-06T04:25:20.703Z,99.90
2017-06-06T04:27:49.160Z,99.90
2017-06-06T04:30:17.600Z,99.90
2017-06-06T04:32:47.469Z,99.90
2017-06-06T04:35:15.931Z,99.90
2017-06-06T04:37:44.395Z,99.90
2017-06-06T04:40:12.919Z,99.90
2017-06-06T04:42:41.347Z,99.90
2017-06-06T04:45:09.799Z,99.90
2017-06-06T04:47:38.240Z,99.90
2017-06-06T04:50:06.691Z,99.90
2017-06-06T04:52:35.171Z,99.90
2017-06-06T04:55:03.595Z,99.90
2017-06-06T04:57:32.072Z,99.90
2017-06-06T05:00:00.521Z,99.90
2017-06-06T05:02:29.643Z,99.90
2017-06-06T05:04:58.098Z,99.90
2017-06-06T05:07:26.678Z,99.90
2017-06-06T05:09:55.132Z,99.90
2017-06-06T05:12:23.557Z,99.90
2017-06-06T05:14:52.135Z,99.90
2017-06-06T05:17:21.479Z,99.90
2017-06-06T05:19:49.915Z,99.90
2017-06-06T05:22:18.343Z,99.90
2017-06-06T05:24:46.843Z,99.90
2017-06-06T05:27:15.285Z,99.90
2017-06-06T05:29:43.704Z,99.90
2017-06-06T05:32:12.144Z,99.90
2017-06-06T05:34:40.576Z,99.90
2017-06-06T05:37:09.032Z,99.90
2017-06-06T05:39:37.472Z,99.90
2017-06-06T05:42:05.912Z,99.90
2017-06-06T05:44:34.364Z,99.90
2017-06-06T05:47:02.811Z,99.90
2017-06-06T05:49:31.261Z,99.90
2017-06-06T05:51:59.691Z,99.90
2017-06-06T05:54:28.139Z,99.90
2017-06-06T05:56:57.368Z,99.90
2017-06-06T05:59:25.798Z,99.90
2017-06-06T06:01:54.235Z,99.90
2017-06-06T06:04:22.668Z,99.60
2017-06-06T06:06:51.115Z,99.10
2017-06-06T06:09:19.568Z,99.70
2017-06-06T06:11:48.100Z,98.80
2017-06-06T06:14:16.553Z,99.10
2017-06-06T06:16:44.976Z,98.70
2017-06-06T06:19:14.092Z,97.80
2017-06-06T06:21:43.299Z,97.80
2017-06-06T06:24:12.492Z,98.50
2017-06-06T06:26:41.680Z,98.30
2017-06-06T06:29:10.116Z,98.20
2017-06-06T06:31:38.598Z,97.00
2017-06-06T06:34:07.036Z,96.40
2017-06-06T06:36:36.142Z,95.50
2017-06-06T06:39:03.899Z,94.40
2017-06-06T06:41:33.091Z,96.20
2017-06-06T06:44:02.371Z,95.00
2017-06-06T06:46:30.783Z,95.00
2017-06-06T06:48:59.969Z,95.90
2017-06-06T06:51:28.408Z,95.80
2017-06-06T06:53:57.523Z,95.10
2017-06-06T06:56:25.972Z,94.10
2017-06-06T06:58:54.406Z,94.20
2017-06-06T07:01:23.703Z,92.60
2017-06-06T07:03:52.132Z,92.40
2017-06-06T07:06:20.690Z,91.90
2017-06-06T07:08:49.214Z,91.80
2017-06-06T07:11:17.643Z,90.80
2017-06-06T07:13:46.763Z,91.00
2017-06-06T07:16:15.231Z,90.60
2017-06-06T07:18:44.435Z,90.10
2017-06-06T07:21:13.684Z,86.00
2017-06-06T07:23:42.104Z,85.90
2017-06-06T07:26:11.292Z,87.40
2017-06-06T07:28:39.767Z,87.40
2017-06-06T07:31:08.202Z,87.60
2017-06-06T07:33:36.642Z,90.00
2017-06-06T07:36:05.064Z,87.00
2017-06-06T07:38:33.503Z,85.60
2017-06-06T07:41:02.787Z,79.50
2017-06-06T07:43:31.219Z,80.00
2017-06-06T07:45:59.700Z,82.70
2017-06-06T07:48:28.128Z,82.10
2017-06-06T07:50:56.567Z,81.50
2017-06-06T07:53:24.982Z,80.20
2017-06-06T07:55:53.428Z,80.30
2017-06-06T07:58:21.864Z,76.60
2017-06-06T08:00:50.974Z,79.60
2017-06-06T08:03:20.192Z,77.30
2017-06-06T08:05:49.382Z,76.60
2017-06-06T08:08:18.594Z,73.10
2017-06-06T08:10:47.767Z,74.30
2017-06-06T08:13:16.207Z,74.00
2017-06-06T08:15:44.681Z,76.20
2017-06-06T08:18:14.551Z,73.80
2017-06-06T08:20:43.755Z,73.10
2017-06-06T08:23:12.950Z,73.50
2017-06-06T08:25:42.141Z,72.10
2017-06-06T08:28:10.578Z,71.90
2017-06-06T08:30:39.151Z,73.30
2017-06-06T08:33:07.592Z,76.80
2017-06-06T08:35:35.655Z,72.20
2017-06-06T08:38:04.097Z,71.40
2017-06-06T08:40:32.535Z,70.50
2017-06-06T08:43:01.756Z,73.80
2017-06-06T08:45:31.583Z,71.40
2017-06-06T08:48:00.005Z,70.50
2017-06-06T08:50:28.436Z,70.70
2017-06-06T08:52:57.115Z,72.00
2017-06-06T08:55:25.555Z,64.50
2017-06-06T08:57:54.074Z,64.00
2017-06-06T09:00:23.275Z,60.10
2017-06-06T09:02:52.506Z,59.40
2017-06-06T09:05:20.754Z,59.10
2017-06-06T09:07:49.175Z,58.30
2017-06-06T09:10:17.718Z,59.30
2017-06-06T09:12:46.948Z,60.10
2017-06-06T09:15:15.411Z,59.80
2017-06-06T09:17:43.875Z,59.80
2017-06-06T09:20:13.351Z,61.60
2017-06-06T09:22:41.871Z,61.60
2017-06-06T09:25:11.079Z,63.00
2017-06-06T09:27:39.651Z,62.80
2017-06-06T09:30:08.987Z,66.60
2017-06-06T09:32:37.422Z,66.60
2017-06-06T09:35:06.711Z,66.80
2017-06-06T09:37:35.227Z,66.50
2017-06-06T09:40:03.662Z,68.80
2017-06-06T09:42:32.094Z,72.80
2017-06-06T09:45:00.527Z,68.90
2017-06-06T09:47:29.632Z,65.70
2017-06-06T09:49:58.083Z,65.00
2017-06-06T09:52:26.511Z,69.00
2017-06-06T09:54:54.927Z,68.20
2017-06-06T09:57:23.376Z,70.20
2017-06-06T09:59:51.811Z,71.60
2017-06-06T10:02:20.353Z,67.40
2017-06-06T10:04:49.560Z,68.80
2017-06-06T10:07:18.775Z,68.80
2017-06-06T10:09:47.344Z,68.70
2017-06-06T10:12:15.835Z,64.50
2017-06-06T10:14:44.250Z,68.80
2017-06-06T10:17:12.675Z,65.40
2017-06-06T10:19:41.883Z,67.50
2017-06-06T10:22:11.070Z,65.10
2017-06-06T10:24:40.082Z,60.50
2017-06-06T10:27:08.499Z,59.70
2017-06-06T10:29:36.932Z,59.80
2017-06-06T10:32:06.143Z,63.50
2017-06-06T10:34:35.354Z,58.60
2017-06-06T10:37:03.823Z,58.50
2017-06-06T10:39:32.247Z,60.20
2017-06-06T10:42:00.703Z,60.00
2017-06-06T10:44:29.176Z,58.80
2017-06-06T10:46:57.604Z,56.10
2017-06-06T10:49:26.056Z,58.20
2017-06-06T10:51:54.487Z,60.90
2017-06-06T10:54:22.919Z,57.80
2017-06-06T10:56:51.363Z,58.60
2017-06-06T10:59:20.550Z,58.20
2017-06-06T11:01:49.751Z,56.70
2017-06-06T11:04:18.218Z,56.90
2017-06-06T11:06:46.639Z,59.20
2017-06-06T11:09:15.103Z,58.20
2017-06-06T11:11:44.292Z,58.30
2017-06-06T11:14:12.755Z,58.30
2017-06-06T11:16:41.179Z,59.20
2017-06-06T11:19:09.600Z,61.10
2017-06-06T11:21:38.039Z,61.00
2017-06-06T11:24:06.460Z,57.90
2017-06-06T11:26:34.907Z,60.50
2017-06-06T11:29:03.339Z,59.10
2017-06-06T11:31:31.808Z,62.40
2017-06-06T11:34:00.234Z,59.50
2017-06-06T11:36:28.922Z,62.60
2017-06-06T11:38:58.118Z,63.90
2017-06-06T11:41:27.314Z,67.70
2017-06-06T11:43:56.667Z,73.70
2017-06-06T11:46:25.073Z,72.60
2017-06-06T11:48:53.525Z,75.30
2017-06-06T11:51:21.963Z,78.30
2017-06-06T11:53:51.309Z,81.90
2017-06-06T11:56:19.748Z,81.70
2017-06-06T11:58:48.939Z,85.40
2017-06-06T12:01:17.387Z,84.70
2017-06-06T12:03:45.799Z,85.20
2017-06-06T12:06:14.252Z,90.60
2017-06-06T12:08:42.692Z,89.80
2017-06-06T12:11:11.126Z,91.60
2017-06-06T12:13:39.551Z,93.60
2017-06-06T12:16:07.990Z,91.10
2017-06-06T12:18:36.419Z,89.40
2017-06-06T12:21:04.667Z,88.70
2017-06-06T12:23:33.867Z,90.70
2017-06-06T12:26:03.078Z,87.40
2017-06-06T12:28:32.271Z,87.30
2017-06-06T12:31:01.475Z,80.70
2017-06-06T12:33:30.671Z,84.60
2017-06-06T12:35:59.887Z,79.90
2017-06-06T12:38:29.071Z,71.70
2017-06-06T12:40:58.271Z,77.20
2017-06-06T12:43:27.483Z,72.50
2017-06-06T12:45:55.985Z,72.30
2017-06-06T12:48:24.446Z,71.40
2017-06-06T12:50:52.869Z,77.10
2017-06-06T12:53:21.309Z,72.40
2017-06-06T12:55:50.501Z,70.80
2017-06-06T12:58:18.918Z,70.70
2017-06-06T13:00:47.351Z,67.30
2017-06-06T13:03:16.534Z,66.00
2017-06-06T13:05:44.991Z,65.90
2017-06-06T13:08:13.419Z,66.40
2017-06-06T13:10:41.842Z,65.00
2017-06-06T13:13:10.092Z,61.80
2017-06-06T13:15:38.514Z,63.70
2017-06-06T13:18:06.966Z,60.50
2017-06-06T13:20:35.423Z,62.20
2017-06-06T13:23:04.626Z,65.20
2017-06-06T13:25:33.895Z,66.80
2017-06-06T13:28:02.319Z,66.60
2017-06-06T13:30:30.842Z,69.30
2017-06-06T13:32:59.346Z,70.60
2017-06-06T13:35:28.467Z,69.70
2017-06-06T13:37:57.683Z,70.90
2017-06-06T13:40:26.880Z,70.00
2017-06-06T13:42:56.060Z,70.20
2017-06-06T13:45:25.270Z,71.80
2017-06-06T13:47:54.463Z,73.40
2017-06-06T13:50:23.655Z,79.20
2017-06-06T13:52:52.796Z,79.20
2017-06-06T13:55:21.246Z,91.70
2017-06-06T13:57:50.451Z,94.60
2017-06-06T14:00:19.639Z,97.60
2017-06-06T14:02:48.849Z,95.50
2017-06-06T14:05:18.031Z,95.90
2017-06-06T14:07:47.439Z,99.20
2017-06-06T14:10:16.639Z,98.10
2017-06-06T14:12:45.831Z,99.30
2017-06-06T14:15:14.266Z,99.10
2017-06-06T14:17:42.695Z,98.50
2017-06-06T14:20:11.127Z,97.20
2017-06-06T14:22:39.572Z,99.90
2017-06-06T14:25:08.773Z,98.30
2017-06-06T14:27:37.996Z,97.30
2017-06-06T14:30:06.428Z,97.10
2017-06-06T14:32:34.868Z,97.80
2017-06-06T14:35:03.291Z,96.50
2017-06-06T14:37:31.878Z,96.50
2017-06-06T14:40:00.298Z,97.50
2017-06-06T14:42:28.732Z,94.40
2017-06-06T14:44:57.160Z,95.80
2017-06-06T14:47:25.615Z,95.20
2017-06-06T14:49:54.052Z,93.20
2017-06-06T14:52:22.486Z,95.70
2017-06-06T14:54:50.935Z,96.40
2017-06-06T14:57:19.499Z,94.40
2017-06-06T14:59:47.974Z,95.10
2017-06-06T15:02:16.387Z,94.70
2017-06-06T15:04:44.833Z,94.00
2017-06-06T15:07:13.260Z,95.60
2017-06-06T15:09:42.386Z,91.20
2017-06-06T15:12:10.819Z,92.10
2017-06-06T15:14:39.255Z,91.30
2017-06-06T15:17:07.702Z,86.70
2017-06-06T15:19:36.119Z,84.20
2017-06-06T15:22:04.583Z,83.40
2017-06-06T15:24:33.014Z,76.60
2017-06-06T15:27:01.451Z,75.80
2017-06-06T15:29:29.899Z,80.50
2017-06-06T15:31:58.335Z,76.10
2017-06-06T15:34:26.790Z,76.50
2017-06-06T15:36:55.232Z,76.50
2017-06-06T15:39:23.656Z,84.30
2017-06-06T15:41:52.179Z,82.70
2017-06-06T15:44:21.299Z,79.60
2017-06-06T15:46:49.767Z,80.70
2017-06-06T15:49:18.186Z,86.10
2017-06-06T15:51:46.621Z,84.90
2017-06-06T15:54:15.064Z,78.00
2017-06-06T15:56:43.499Z,72.10
2017-06-06T15:59:11.953Z,62.60
2017-06-06T16:01:40.400Z,66.50
2017-06-06T16:04:08.851Z,58.40
2017-06-06T16:06:37.271Z,57.60
2017-06-06T16:09:05.764Z,57.80
2017-06-06T16:11:34.223Z,55.00
2017-06-06T16:14:02.650Z,55.20
2017-06-06T16:16:31.088Z,57.10
2017-06-06T16:18:59.511Z,58.80
2017-06-06T16:21:27.992Z,59.60
2017-06-06T16:23:56.411Z,59.70
2017-06-06T16:26:24.842Z,65.40
2017-06-06T16:28:53.292Z,61.20
2017-06-06T16:31:21.735Z,57.90
2017-06-06T16:33:50.163Z,58.80
2017-06-06T16:36:18.640Z,60.40
2017-06-06T16:38:47.076Z,55.70
2017-06-06T16:41:15.575Z,54.60
2017-06-06T16:43:44.031Z,55.40
2017-06-06T16:46:12.464Z,59.00
2017-06-06T16:48:41.608Z,58.10
2017-06-06T16:51:10.044Z,59.00
2017-06-06T16:53:39.322Z,53.60
2017-06-06T16:56:07.769Z,53.60
2017-06-06T16:58:36.336Z,51.80
2017-06-06T17:01:04.810Z,52.90
2017-06-06T17:03:33.259Z,49.40
2017-06-06T17:06:01.688Z,47.70
2017-06-06T17:08:30.260Z,48.80
2017-06-06T17:10:59.439Z,47.60
2017-06-06T17:13:28.635Z,49.50
2017-06-06T17:15:57.764Z,49.50
2017-06-06T17:18:26.199Z,46.50
2017-06-06T17:20:54.755Z,44.20
2017-06-06T17:23:23.165Z,45.60
2017-06-06T17:25:51.620Z,45.00
2017-06-06T17:28:20.171Z,46.80
2017-06-06T17:30:48.610Z,49.20
2017-06-06T17:33:17.076Z,48.70
2017-06-06T17:35:45.511Z,52.20
2017-06-06T17:38:14.009Z,49.80
2017-06-06T17:40:42.487Z,49.40
2017-06-06T17:43:10.933Z,51.40
2017-06-06T17:45:40.164Z,50.90
2017-06-06T17:48:08.599Z,51.10
2017-06-06T17:50:37.391Z,48.30
2017-06-06T17:53:05.852Z,49.40
2017-06-06T17:55:34.291Z,52.90
2017-06-06T17:58:03.492Z,64.20
2017-06-06T18:00:31.957Z,64.10
2017-06-06T18:03:01.153Z,63.50
2017-06-06T18:05:29.715Z,63.10
2017-06-06T18:07:58.169Z,63.30
2017-06-06T18:10:27.337Z,68.20
2017-06-06T18:12:55.857Z,69.90
2017-06-06T18:15:24.305Z,80.90
2017-06-06T18:17:53.559Z,89.80
2017-06-06T18:20:22.188Z,90.70
2017-06-06T18:22:50.652Z,90.70
2017-06-06T18:25:19.847Z,95.30
2017-06-06T18:27:49.112Z,94.30
2017-06-06T18:30:17.539Z,94.20
2017-06-06T18:32:46.752Z,96.50
2017-06-06T18:35:15.219Z,96.50
2017-06-06T18:37:43.667Z,96.40
2017-06-06T18:40:12.144Z,94.40
2017-06-06T18:42:40.578Z,98.10
2017-06-06T18:45:09.040Z,97.40
2017-06-06T18:47:38.256Z,97.30
2017-06-06T18:50:06.708Z,97.30
2017-06-06T18:52:35.173Z,97.60
2017-06-06T18:55:03.611Z,96.70
2017-06-06T18:57:32.044Z,98.90
2017-06-06T19:00:00.560Z,98.00
2017-06-06T19:02:29.003Z,99.20
2017-06-06T19:04:57.658Z,98.70
2017-06-06T19:07:26.183Z,99.40
2017-06-06T19:09:54.606Z,99.90
2017-06-06T19:12:22.940Z,99.90
2017-06-06T19:14:51.441Z,99.80
2017-06-06T19:17:20.646Z,99.90
2017-06-06T19:19:50.000Z,98.90
2017-06-06T19:22:19.300Z,98.90
2017-06-06T19:24:47.833Z,99.60
2017-06-06T19:27:17.141Z,99.10
2017-06-06T19:29:46.364Z,99.90
2017-06-06T19:32:14.791Z,99.90
2017-06-06T19:34:43.243Z,99.90
2017-06-06T19:37:11.676Z,99.90
2017-06-06T19:39:40.888Z,99.80
2017-06-06T19:42:09.350Z,99.70
2017-06-06T19:44:37.808Z,99.90
2017-06-06T19:47:06.407Z,99.90
2017-06-06T19:49:34.848Z,99.90
2017-06-06T19:52:03.317Z,99.90
2017-06-06T19:54:31.755Z,99.90
2017-06-06T19:57:00.230Z,99.90
2017-06-06T19:59:28.851Z,99.90
2017-06-06T20:01:58.062Z,99.90
2017-06-06T20:04:26.542Z,99.90
2017-06-06T20:06:55.012Z,99.90
2017-06-06T20:09:24.230Z,99.90
2017-06-06T20:11:52.810Z,99.90
2017-06-06T20:14:21.239Z,99.90
2017-06-06T20:16:49.767Z,99.90
2017-06-06T20:19:18.230Z,99.90
2017-06-06T20:21:46.757Z,99.90
2017-06-06T20:24:16.655Z,99.90
2017-06-06T20:26:45.093Z,99.90
2017-06-06T20:29:13.586Z,99.90
2017-06-06T20:31:42.089Z,99.90
2017-06-06T20:34:11.291Z,99.90
2017-06-06T20:36:40.503Z,99.90
2017-06-06T20:39:09.046Z,99.90
2017-06-06T20:41:37.500Z,99.90
2017-06-06T20:44:05.956Z,99.90
2017-06-06T20:46:34.439Z,99.90
2017-06-06T20:49:02.868Z,99.90
2017-06-06T20:51:31.334Z,99.90
2017-06-06T20:53:59.784Z,99.90
2017-06-06T20:56:29.224Z,99.50
2017-06-06T20:58:57.657Z,99.50
2017-06-06T21:01:26.179Z,99.30
2017-06-06T21:03:54.712Z,99.90
2017-06-06T21:06:23.175Z,99.90
2017-06-06T21:08:51.628Z,98.60
2017-06-06T21:11:20.054Z,97.20
2017-06-06T21:13:49.272Z,99.00
2017-06-06T21:16:17.722Z,99.00
2017-06-06T21:18:46.931Z,98.30
2017-06-06T21:21:16.313Z,98.10
2017-06-06T21:23:44.871Z,98.10
2017-06-06T21:26:13.327Z,98.30
2017-06-06T21:28:41.776Z,98.40
2017-06-06T21:31:10.983Z,98.50
2017-06-06T21:33:40.191Z,97.30
2017-06-06T21:36:09.475Z,97.30
2017-06-06T21:38:38.675Z,98.20
2017-06-06T21:41:07.887Z,98.20
2017-06-06T21:43:36.378Z,98.20
2017-06-06T21:46:04.889Z,98.00
2017-06-06T21:48:33.350Z,96.20
2017-06-06T21:51:01.837Z,97.10
2017-06-06T21:53:30.319Z,95.00
2017-06-06T21:55:58.748Z,95.20
2017-06-06T21:58:27.192Z,96.60
2017-06-06T22:00:55.635Z,98.60
2017-06-06T22:03:24.847Z,97.90
2017-06-06T22:05:53.303Z,98.30
2017-06-06T22:08:21.730Z,98.50
2017-06-06T22:10:50.172Z,99.10
2017-06-06T22:13:19.366Z,97.50
2017-06-06T22:15:48.599Z,96.70
2017-06-06T22:18:17.052Z,96.40
2017-06-06T22:20:45.467Z,96.70
2017-06-06T22:23:13.944Z,97.60
2017-06-06T22:25:42.535Z,97.00
2017-06-06T22:28:10.982Z,97.80
2017-06-06T22:30:39.405Z,97.10
2017-06-06T22:33:07.851Z,98.60
2017-06-06T22:35:37.074Z,98.50
2017-06-06T22:38:05.522Z,98.10
2017-06-06T22:40:33.940Z,97.30
2017-06-06T22:43:02.376Z,98.60
2017-06-06T22:45:30.852Z,98.30
2017-06-06T22:47:59.282Z,97.80
2017-06-06T22:50:27.726Z,97.80
2017-06-06T22:52:56.176Z,97.60
2017-06-06T22:55:24.627Z,99.30
2017-06-06T22:57:53.060Z,99.80
2017-06-06T23:00:21.488Z,99.60
2017-06-06T23:02:49.948Z,99.50
2017-06-06T23:05:19.149Z,99.50
2017-06-06T23:07:48.479Z,99.90
2017-06-06T23:10:16.954Z,99.90
2017-06-06T23:12:45.976Z,99.90
2017-06-06T23:15:14.410Z,99.60
2017-06-06T23:17:43.604Z,98.50
2017-06-06T23:20:12.819Z,99.80
2017-06-06T23:22:41.266Z,99.70
2017-06-06T23:25:09.714Z,99.30
2017-06-06T23:27:38.143Z,99.30
2017-06-06T23:30:07.339Z,98.90
2017-06-06T23:32:36.567Z,99.70
2017-06-06T23:35:05.016Z,99.30
2017-06-06T23:37:33.460Z,99.10
2017-06-06T23:40:01.893Z,98.80
2017-06-06T23:42:31.107Z,99.50
2017-06-06T23:45:00.303Z,99.50
2017-06-06T23:47:29.502Z,98.80
2017-06-06T23:49:58.686Z,97.90
2017-06-06T23:52:27.887Z,98.40
2017-06-06T23:54:57.241Z,99.40
2017-06-06T23:57:25.679Z,99.70
2017-06-06T23:59:54.882Z,99.10
